Aérodrome :
LOGIN :

S'inscrire | Disclaimer

   EN    FR    IT 

 










Légende :    VFR   VFR Marginal   IFR   IFR Intensif   IFR Très Intensif
Visi : 
Plafond : 
>= 8 km
>= 3000ft
5 à 8 km
1000 à 3000 ft
1500m à 5 km
500 à 1000 ft
800 à 1500m
200 à 500 ft
< 800m
< 200 ft
Symboles :   Orages  Brouillard  Fortes neiges  Fortes précipitations  Vent > 20 kt
SIGMETs :   Divers  Orages  Givrage  Turbulence  Onde Orograph.  Cendres Volcan.






- Altitude de l'aérodrome : 375 ft
- Code IATA : MST


EHBK - Maastricht Aachen

DERNIER METAR :
  • 171825Z AUTO 29006KT 240V350 9999 NSC 13/07 Q1008 NOSIG

METARs EXPIRÉS :
  • 171755Z AUTO 29008KT 250V330 9999 NCD 13/07 Q1008 NOSIG
  • 171725Z AUTO 27009KT 220V330 9999 FEW029 14/07 Q1007 NOSIG
  • 171655Z AUTO 29008KT 220V340 9999 FEW031 SCT038 14/07 Q1007 NOSIG
  • 171625Z AUTO 29008KT 240V350 9999 BKN030 BKN038 15/08 Q1007 NOSIG
  • 171555Z AUTO 27010KT 220V340 9999 NCD 15/08 Q1006 NOSIG

TAF TAF EHBK
Valide du 17 à 18h jusqu'au 19 à 00h UTC


171704Z 1718/1824 28009KT 9999 SCT035
TEMPO 1720/1807 4000 RA SHRA BKN008 FEW020CB
BECMG 1803/1806 25010KT
PROB40
TEMPO 1809/1817 6000 SHRA FEW020CB BKN025
BECMG 1817/1820 22006KT



MET'MAP, la Météo Aéronautique d'un coup d'oeil ! - Copyright ORBIFLY Décembre 2007 - Disclaimer

ORBIFLY MET'MAP TEAM :

Programmation & Développement : Alexandra Zaïnal
Sur une idée originale de : Baudouin d'Aumeries
Assistance à la programmation : Marc-Olivier Méhu
Soutien technique & logistique : Manuel Goepfert

Contact : metmap@orbifly.com




SOURCES & CREDITS :

   NOAA